Time;durP1;ratioP1;P1;durP2;ratioP2;P2;SDS_P1;SDS_P2;PMS_P1;PMS_P2;Temp;Humidity;BMP_temperature;BMP_pressure;BME280_temperature;BME280_humidity;BME280_pressure;Samples;Min_cycle;Max_cycle;Signal;HPM_P1;HPM_P2
2021/07/25 00:02:04;;;;;;;4.03;3.25;;;20.10;99.90;;;;;;5052325;28;20675;-79
2021/07/25 00:04:31;;;;;;;4.05;3.75;;;19.90;99.90;;;;;;5052154;28;20277;-80
2021/07/25 00:06:57;;;;;;;10.98;3.22;;;20.00;99.90;;;;;;5052474;28;20634;-79
2021/07/25 00:09:23;;;;;;;6.05;3.30;;;20.10;99.90;;;;;;5052413;28;20175;-80
2021/07/25 00:11:48;;;;;;;4.60;4.15;;;19.90;99.90;;;;;;5052225;28;20160;-80
2021/07/25 00:14:15;;;;;;;3.63;2.75;;;19.60;99.90;;;;;;5052390;28;20237;-80
2021/07/25 00:16:40;;;;;;;4.32;3.38;;;19.40;99.90;;;;;;5052267;28;20167;-79
2021/07/25 00:19:09;;;;;;;7.55;3.95;;;19.50;99.90;;;;;;5034386;28;20671;-79
2021/07/25 00:21:35;;;;;;;7.05;3.75;;;19.50;99.90;;;;;;5052147;28;20214;-80
2021/07/25 00:24:02;;;;;;;5.13;3.90;;;19.50;99.90;;;;;;5052266;28;20195;-80
2021/07/25 00:26:33;;;;;;;12.27;3.15;;;19.40;99.90;;;;;;5034181;28;20171;-80
2021/07/25 00:28:59;;;;;;;8.32;4.47;;;19.40;99.90;;;;;;5051877;28;20318;-80
2021/07/25 00:31:24;;;;;;;5.03;4.10;;;19.60;99.90;;;;;;5052168;28;20268;-80
2021/07/25 00:33:50;;;;;;;5.72;3.83;;;19.70;99.90;;;;;;5052085;28;20178;-80
2021/07/25 00:36:16;;;;;;;8.93;3.65;;;19.60;99.90;;;;;;5051991;28;20187;-79
2021/07/25 00:38:42;;;;;;;4.07;3.67;;;19.60;99.90;;;;;;5052075;28;20202;-80
2021/07/25 00:41:12;;;;;;;5.45;3.22;;;19.60;99.90;;;;;;5051998;28;20183;-79
2021/07/25 00:43:39;;;;;;;8.48;3.75;;;19.30;99.90;;;;;;5034007;28;20195;-79
2021/07/25 00:46:05;;;;;;;5.72;4.10;;;19.30;99.90;;;;;;5051567;28;20230;-80
2021/07/25 00:48:31;;;;;;;8.55;4.63;;;19.30;99.90;;;;;;5051839;28;20628;-79
2021/07/25 00:50:58;;;;;;;6.68;4.95;;;19.10;99.90;;;;;;5052096;28;20175;-79
2021/07/25 00:53:24;;;;;;;7.03;4.60;;;19.00;99.90;;;;;;5034178;28;20174;-79
2021/07/25 00:55:51;;;;;;;6.97;4.97;;;18.90;99.90;;;;;;5051839;28;20202;-80
2021/07/25 00:58:17;;;;;;;13.65;5.00;;;18.80;99.90;;;;;;5051578;28;20179;-79
2021/07/25 01:00:46;;;;;;;5.40;4.90;;;18.50;99.90;;;;;;5037085;28;20182;-79
2021/07/25 01:03:36;;;;;;;5.78;5.18;;;18.50;99.90;;;;;;5037641;28;20277;-80
2021/07/25 01:06:11;;;;;;;5.95;4.78;;;18.50;99.90;;;;;;5055562;28;20187;-79
2021/07/25 01:08:57;;;;;;;5.63;5.05;;;18.60;99.90;;;;;;5055080;28;20641;-79
2021/07/25 01:11:28;;;;;;;6.13;4.55;;;18.70;99.90;;;;;;5037145;28;20588;-81
2021/07/25 01:13:58;;;;;;;10.57;5.20;;;18.90;99.90;;;;;;5055315;28;20163;-80
2021/07/25 01:16:24;;;;;;;6.20;4.32;;;19.10;99.90;;;;;;5055392;28;20249;-80
2021/07/25 01:18:50;;;;;;;6.47;4.78;;;19.10;99.90;;;;;;5054816;28;20536;-80
2021/07/25 01:21:17;;;;;;;5.32;4.82;;;19.30;99.90;;;;;;5055332;28;20167;-80
2021/07/25 01:23:44;;;;;;;5.78;4.95;;;19.20;99.90;;;;;;5055185;28;20508;-79
2021/07/25 01:26:12;;;;;;;5.57;5.07;;;19.40;99.90;;;;;;5054959;28;20499;-80
2021/07/25 01:28:43;;;;;;;5.97;5.35;;;19.50;99.90;;;;;;5037425;28;20507;-79
2021/07/25 01:31:21;;;;;;;5.20;4.78;;;19.40;99.90;;;;;;5054805;28;20692;-80
2021/07/25 01:33:48;;;;;;;6.47;5.00;;;19.40;99.90;;;;;;5054955;28;20191;-80
2021/07/25 01:36:15;;;;;;;9.95;5.10;;;19.50;99.90;;;;;;5037048;28;20187;-80
2021/07/25 01:38:41;;;;;;;6.93;4.90;;;19.60;99.90;;;;;;5054723;28;20659;-80
2021/07/25 01:41:12;;;;;;;6.28;4.45;;;19.60;99.90;;;;;;5036722;28;20169;-80
2021/07/25 01:43:40;;;;;;;5.93;4.43;;;19.50;99.90;;;;;;5064957;28;20213;-79
2021/07/25 01:46:07;;;;;;;5.88;5.03;;;19.60;99.90;;;;;;5065489;28;20199;-80
2021/07/25 01:48:33;;;;;;;7.43;4.63;;;19.70;99.90;;;;;;5044123;28;20160;-80
2021/07/25 01:50:59;;;;;;;10.40;4.70;;;19.60;99.90;;;;;;5070894;28;20203;-79
2021/07/25 01:53:25;;;;;;;6.80;4.63;;;19.70;99.90;;;;;;5078274;28;20186;-80
2021/07/25 01:55:51;;;;;;;8.85;4.45;;;19.70;99.90;;;;;;5056795;28;20202;-79
2021/07/25 01:58:16;;;;;;;6.15;5.03;;;19.70;99.90;;;;;;5065519;28;20258;-80
2021/07/25 02:00:42;;;;;;;5.18;4.50;;;19.80;99.90;;;;;;5043377;28;20183;-79
2021/07/25 02:03:07;;;;;;;11.70;4.78;;;20.00;99.90;;;;;;5076173;28;20144;-81
2021/07/25 02:05:36;;;;;;;12.18;5.40;;;20.00;99.90;;;;;;5073475;28;20202;-80
2021/07/25 02:08:05;;;;;;;10.45;5.07;;;20.10;99.90;;;;;;5072760;28;20174;-79
2021/07/25 02:10:31;;;;;;;6.45;4.85;;;20.20;99.90;;;;;;5072945;28;20159;-79
2021/07/25 02:12:57;;;;;;;6.43;4.43;;;20.20;99.90;;;;;;5073110;28;20175;-79
2021/07/25 02:15:23;;;;;;;9.32;5.28;;;20.20;99.90;;;;;;5070626;28;20191;-80
2021/07/25 02:17:48;;;;;;;5.60;4.95;;;20.20;99.90;;;;;;5059612;28;20535;-78
2021/07/25 02:20:14;;;;;;;8.52;4.97;;;20.30;99.90;;;;;;5055692;28;20203;-79
2021/07/25 02:22:40;;;;;;;5.70;5.10;;;20.20;99.90;;;;;;5054938;28;20171;-79
2021/07/25 02:25:06;;;;;;;4.88;4.47;;;20.10;99.90;;;;;;5054519;28;20191;-79
2021/07/25 02:27:32;;;;;;;8.43;5.03;;;20.10;99.90;;;;;;5036609;28;20672;-79
2021/07/25 02:29:58;;;;;;;11.30;5.47;;;20.20;99.90;;;;;;5061930;28;20175;-78
2021/07/25 02:32:23;;;;;;;14.98;4.85;;;20.10;99.90;;;;;;5059862;28;20198;-79
2021/07/25 02:34:49;;;;;;;8.10;3.63;;;20.00;99.90;;;;;;5056931;28;20246;-79
2021/07/25 02:37:14;;;;;;;8.50;4.82;;;19.90;99.90;;;;;;5036966;28;20171;-79
2021/07/25 02:39:41;;;;;;;5.10;4.60;;;20.00;99.90;;;;;;5053977;28;20289;-79
2021/07/25 02:42:07;;;;;;;8.25;4.72;;;19.90;99.90;;;;;;5053868;28;20639;-79
2021/07/25 02:44:34;;;;;;;7.18;4.80;;;19.80;99.90;;;;;;5053733;28;20190;-79
2021/07/25 02:47:01;;;;;;;7.10;4.97;;;19.80;99.90;;;;;;5053870;28;20178;-77
2021/07/25 02:49:26;;;;;;;10.68;5.25;;;19.70;99.90;;;;;;5053920;28;20658;-77
2021/07/25 02:51:53;;;;;;;12.20;4.57;;;19.80;99.90;;;;;;5035722;28;20195;-77
2021/07/25 02:54:18;;;;;;;9.95;4.75;;;19.70;99.90;;;;;;5053372;28;20250;-80
2021/07/25 02:56:44;;;;;;;6.55;4.35;;;19.70;99.90;;;;;;5053046;28;20202;-79
2021/07/25 02:59:10;;;;;;;6.72;3.88;;;19.60;99.90;;;;;;5053284;28;20214;-79
2021/07/25 03:01:35;;;;;;;9.40;4.13;;;19.40;99.90;;;;;;5053216;28;20167;-79
2021/07/25 03:04:01;;;;;;;7.95;3.97;;;19.30;99.90;;;;;;5053312;28;20639;-79
2021/07/25 03:06:26;;;;;;;6.53;3.17;;;19.30;99.90;;;;;;5053218;28;20190;-79
2021/07/25 03:08:52;;;;;;;5.18;3.95;;;19.30;99.90;;;;;;5052983;28;20166;-79
2021/07/25 03:11:21;;;;;;;5.90;3.80;;;19.30;99.90;;;;;;5052691;28;20171;-79
2021/07/25 03:13:46;;;;;;;11.55;4.53;;;19.30;99.90;;;;;;5053116;28;20171;-79
2021/07/25 03:16:12;;;;;;;4.40;3.78;;;19.30;99.90;;;;;;5052665;28;20329;-79
2021/07/25 03:18:38;;;;;;;7.43;4.55;;;19.30;99.90;;;;;;5052768;28;20167;-79
2021/07/25 03:21:05;;;;;;;7.50;4.03;;;19.30;99.90;;;;;;5053255;28;20167;-79
2021/07/25 03:23:32;;;;;;;6.88;3.90;;;19.30;99.90;;;;;;5052464;28;20167;-78
2021/07/25 03:25:58;;;;;;;8.18;4.22;;;19.30;99.90;;;;;;5053343;28;20273;-78
2021/07/25 03:28:24;;;;;;;4.32;3.92;;;19.10;99.90;;;;;;5053254;28;20276;-77
2021/07/25 03:30:50;;;;;;;8.85;4.35;;;19.20;99.90;;;;;;5053155;28;20167;-78
2021/07/25 03:33:17;;;;;;;14.73;4.70;;;19.20;99.90;;;;;;5053487;28;20171;-78
2021/07/25 03:35:43;;;;;;;8.57;4.25;;;19.30;99.90;;;;;;5052562;28;20201;-78
2021/07/25 03:38:09;;;;;;;4.35;3.63;;;19.30;99.90;;;;;;5052707;28;20242;-80
2021/07/25 03:40:35;;;;;;;6.88;3.95;;;19.20;99.90;;;;;;5052505;28;20213;-78
2021/07/25 03:43:01;;;;;;;10.40;4.03;;;19.10;99.90;;;;;;5052351;28;20162;-78
2021/07/25 03:45:27;;;;;;;8.05;3.88;;;19.00;99.90;;;;;;5052542;28;20203;-78
2021/07/25 03:47:53;;;;;;;4.25;3.85;;;19.10;99.90;;;;;;5052298;28;20175;-78
2021/07/25 03:50:19;;;;;;;5.72;3.65;;;19.10;99.90;;;;;;5034574;28;20175;-78
2021/07/25 03:52:45;;;;;;;8.52;3.95;;;19.10;99.90;;;;;;5052914;28;20217;-78
2021/07/25 03:55:11;;;;;;;9.48;3.67;;;19.10;99.90;;;;;;5052496;28;20607;-78
2021/07/25 03:57:37;;;;;;;5.30;4.00;;;19.20;99.90;;;;;;5052504;28;20168;-78
2021/07/25 04:00:05;;;;;;;7.60;3.67;;;19.30;99.90;;;;;;5034819;28;20207;-78
2021/07/25 04:02:31;;;;;;;9.50;3.55;;;19.20;99.90;;;;;;5052541;28;20217;-79
2021/07/25 04:04:57;;;;;;;9.65;4.72;;;19.20;99.90;;;;;;5052573;28;20585;-78
2021/07/25 04:07:22;;;;;;;4.80;3.75;;;19.30;99.90;;;;;;5052750;28;20163;-78
2021/07/25 04:09:48;;;;;;;7.97;4.15;;;19.40;99.90;;;;;;5052399;28;20741;-78
2021/07/25 04:12:14;;;;;;;4.63;3.78;;;19.40;99.90;;;;;;5052662;28;20175;-79
2021/07/25 04:14:39;;;;;;;5.47;3.80;;;19.30;99.90;;;;;;5052598;28;20679;-78
2021/07/25 04:17:05;;;;;;;8.35;5.30;;;19.20;99.90;;;;;;5034878;28;20506;-79
2021/07/25 04:19:31;;;;;;;12.20;4.13;;;19.20;99.90;;;;;;5034836;28;20237;-78
2021/07/25 04:21:58;;;;;;;6.75;3.47;;;19.10;99.90;;;;;;5052804;28;20167;-79
2021/07/25 04:24:24;;;;;;;8.40;4.18;;;19.10;99.90;;;;;;5052154;28;20197;-78
2021/07/25 04:26:50;;;;;;;11.32;4.47;;;19.00;99.90;;;;;;5052398;28;20242;-78
2021/07/25 04:29:16;;;;;;;7.50;4.25;;;19.00;99.90;;;;;;5052739;28;20195;-78
2021/07/25 04:31:42;;;;;;;8.43;4.10;;;19.00;99.90;;;;;;5052584;28;20171;-79
2021/07/25 04:34:08;;;;;;;4.78;4.20;;;19.30;99.90;;;;;;5052975;28;20220;-78
2021/07/25 04:36:34;;;;;;;6.63;3.63;;;19.40;99.90;;;;;;5056142;28;20244;-78
2021/07/25 04:39:00;;;;;;;7.10;4.43;;;19.30;99.90;;;;;;5056094;28;20190;-79
2021/07/25 04:41:33;;;;;;;8.65;4.20;;;19.50;99.90;;;;;;5038492;28;20226;-79
2021/07/25 04:44:18;;;;;;;6.40;3.53;;;19.70;99.90;;;;;;5056268;28;20568;-78
2021/07/25 04:46:47;;;;;;;7.93;3.88;;;19.90;99.90;;;;;;5056087;28;20246;-78
2021/07/25 04:49:14;;;;;;;8.90;3.65;;;19.90;99.90;;;;;;5056101;28;20171;-79
2021/07/25 04:51:42;;;;;;;5.72;3.40;;;20.00;99.90;;;;;;5055815;28;20159;-79
2021/07/25 04:54:16;;;;;;;4.78;3.58;;;20.00;99.90;;;;;;5056110;28;20170;-79
2021/07/25 04:56:57;;;;;;;4.05;3.47;;;20.10;99.90;;;;;;5055941;28;20203;-78
2021/07/25 04:59:29;;;;;;;12.32;3.67;;;20.10;99.90;;;;;;5037866;28;20666;-79
2021/07/25 05:02:08;;;;;;;8.55;3.67;;;20.20;99.90;;;;;;5055921;28;20201;-79
2021/07/25 05:04:34;;;;;;;6.10;4.18;;;20.10;99.90;;;;;;5055804;28;20186;-78
2021/07/25 05:07:00;;;;;;;6.18;3.80;;;20.10;99.90;;;;;;5055365;28;20639;-78
2021/07/25 05:09:26;;;;;;;9.70;3.67;;;20.10;99.90;;;;;;5055501;28;20873;-79
2021/07/25 05:12:13;;;;;;;11.15;4.28;;;20.20;99.90;;;;;;5055204;28;20163;-79
2021/07/25 05:15:13;;;;;;;6.78;3.85;;;20.10;99.90;;;;;;5054306;28;20687;-79
2021/07/25 05:18:02;;;;;;;5.55;3.83;;;20.10;99.90;;;;;;5055216;28;20711;-78
2021/07/25 05:20:55;;;;;;;18.55;4.47;;;20.10;99.90;;;;;;5055031;28;20210;-78
2021/07/25 05:23:42;;;;;;;7.35;4.03;;;20.00;99.90;;;;;;5037248;28;20213;-79
2021/07/25 05:26:10;;;;;;;7.43;4.00;;;20.00;99.90;;;;;;5054583;28;20651;-79
2021/07/25 05:28:37;;;;;;;10.60;3.78;;;20.20;99.90;;;;;;5054953;28;20246;-79
2021/07/25 05:31:07;;;;;;;5.47;3.72;;;20.40;99.90;;;;;;5037433;28;20178;-78
2021/07/25 05:33:32;;;;;;;4.70;3.92;;;20.50;99.90;;;;;;5054984;28;20167;-79
2021/07/25 05:35:58;;;;;;;3.70;3.25;;;20.60;99.90;;;;;;5054836;28;20189;-78
2021/07/25 05:38:23;;;;;;;4.78;3.35;;;20.70;99.90;;;;;;5054910;28;20635;-78
2021/07/25 05:40:49;;;;;;;10.32;3.50;;;21.00;99.90;;;;;;5036696;28;20685;-78
2021/07/25 05:43:16;;;;;;;7.05;3.75;;;21.00;99.90;;;;;;5054936;28;20175;-79
2021/07/25 05:45:42;;;;;;;10.35;3.28;;;20.80;99.90;;;;;;5053663;28;20651;-79
2021/07/25 05:48:09;;;;;;;7.70;2.95;;;21.00;99.90;;;;;;5036810;28;20624;-79
2021/07/25 05:50:35;;;;;;;18.52;3.40;;;21.20;99.90;;;;;;5054330;28;20179;-79
2021/07/25 05:53:01;;;;;;;8.15;3.13;;;21.10;99.90;;;;;;5054499;28;20163;-79
2021/07/25 05:55:30;;;;;;;3.65;3.33;;;20.80;99.90;;;;;;5054429;28;20187;-82
2021/07/25 05:57:55;;;;;;;4.07;2.92;;;21.10;99.90;;;;;;5036980;28;20245;-79
2021/07/25 06:00:21;;;;;;;5.57;3.08;;;21.50;99.90;;;;;;5054337;28;20258;-80
2021/07/25 06:02:57;;;;;;;2.63;2.42;;;21.60;99.90;;;;;;5053883;28;20171;-79
2021/07/25 06:05:27;;;;;;;6.97;2.95;;;21.60;99.90;;;;;;5054368;28;20214;-80
2021/07/25 06:07:54;;;;;;;6.65;3.33;;;21.70;99.90;;;;;;5054301;28;20302;-79
2021/07/25 06:10:22;;;;;;;9.18;2.70;;;21.80;99.90;;;;;;5054063;28;20268;-78
2021/07/25 06:12:47;;;;;;;3.05;2.85;;;21.80;99.90;;;;;;5036133;28;20203;-79
2021/07/25 06:15:13;;;;;;;7.60;2.97;;;22.00;99.90;;;;;;5053779;28;20690;-79
2021/07/25 06:17:39;;;;;;;6.20;2.83;;;22.10;99.90;;;;;;5053696;28;20187;-79
2021/07/25 06:20:05;;;;;;;8.45;2.70;;;22.30;99.90;;;;;;5054121;28;20284;-79
2021/07/25 06:22:43;;;;;;;3.92;2.40;;;22.30;99.90;;;;;;5053987;28;20163;-79
2021/07/25 06:25:10;;;;;;;3.05;2.50;;;22.70;99.90;;;;;;5053743;28;20277;-79
2021/07/25 06:27:36;;;;;;;8.90;3.55;;;22.60;99.90;;;;;;5053742;28;20167;-79
2021/07/25 06:30:03;;;;;;;6.72;2.38;;;22.90;99.90;;;;;;5053836;28;20175;-79
2021/07/25 06:32:28;;;;;;;7.60;2.78;;;23.10;99.90;;;;;;5053722;28;20163;-79
2021/07/25 06:34:54;;;;;;;9.32;2.97;;;23.30;99.90;;;;;;5053344;28;20244;-80
2021/07/25 06:37:19;;;;;;;2.80;2.50;;;23.40;99.90;;;;;;5053134;28;20178;-79
2021/07/25 06:39:45;;;;;;;4.95;2.67;;;23.60;99.90;;;;;;5035427;28;20272;-79
2021/07/25 06:42:11;;;;;;;2.38;1.65;;;23.70;99.90;;;;;;5053525;28;20247;-79
2021/07/25 06:44:37;;;;;;;4.03;2.65;;;23.90;99.90;;;;;;5053305;28;20717;-79
2021/07/25 06:47:03;;;;;;;6.88;2.08;;;23.70;99.90;;;;;;5053122;28;20167;-79
2021/07/25 06:49:29;;;;;;;7.32;2.40;;;23.80;99.90;;;;;;5053604;28;20190;-79
2021/07/25 06:51:54;;;;;;;8.02;2.20;;;23.70;99.90;;;;;;5035484;28;20535;-79
2021/07/25 06:54:20;;;;;;;3.22;1.98;;;23.80;99.90;;;;;;5053274;28;20210;-79
2021/07/25 06:56:45;;;;;;;9.32;2.20;;;23.70;99.90;;;;;;5053270;28;20612;-79
2021/07/25 06:59:11;;;;;;;3.42;2.33;;;23.40;99.90;;;;;;5052979;28;20211;-79
2021/07/25 07:01:36;;;;;;;2.55;2.13;;;23.20;99.90;;;;;;5052856;28;20163;-79
2021/07/25 07:04:02;;;;;;;6.80;2.60;;;23.00;99.90;;;;;;5053001;28;20190;-79
2021/07/25 07:06:28;;;;;;;3.50;2.05;;;23.10;99.90;;;;;;5053020;28;20236;-79
2021/07/25 07:08:53;;;;;;;4.10;2.72;;;23.20;99.90;;;;;;5052754;28;20167;-79
2021/07/25 07:11:26;;;;;;;3.17;2.38;;;23.60;99.90;;;;;;5052525;28;20533;-79
2021/07/25 07:13:54;;;;;;;7.00;2.35;;;23.90;99.90;;;;;;5052476;28;20175;-79
2021/07/25 07:16:20;;;;;;;5.05;2.65;;;24.30;99.90;;;;;;5052628;28;20187;-79
2021/07/25 07:18:46;;;;;;;4.20;2.53;;;24.60;99.90;;;;;;5052825;28;20226;-79
2021/07/25 07:21:11;;;;;;;9.63;3.15;;;24.50;99.90;;;;;;5052865;28;20179;-78
2021/07/25 07:23:37;;;;;;;4.90;3.28;;;25.20;99.90;;;;;;5034736;28;20592;-77
2021/07/25 07:26:03;;;;;;;4.18;2.53;;;26.00;99.90;;;;;;5052303;28;20244;-77
2021/07/25 07:28:28;;;;;;;3.65;2.33;;;26.70;99.90;;;;;;5052567;28;20543;-77
2021/07/25 07:30:54;;;;;;;3.97;2.15;;;27.60;99.90;;;;;;5052627;28;20627;-77
2021/07/25 07:33:21;;;;;;;5.97;2.60;;;28.30;99.90;;;;;;5052610;28;20182;-78
2021/07/25 07:35:48;;;;;;;6.25;2.28;;;29.20;99.90;;;;;;5052566;28;20183;-77
2021/07/25 07:38:14;;;;;;;4.05;2.25;;;29.90;99.90;;;;;;5052487;28;20206;-77
2021/07/25 07:40:43;;;;;;;4.65;2.05;;;30.50;99.90;;;;;;5052295;28;20221;-77
2021/07/25 07:43:10;;;;;;;5.43;1.80;;;30.40;99.90;;;;;;5034654;28;20171;-78
2021/07/25 07:45:37;;;;;;;6.20;1.98;;;31.80;99.90;;;;;;5052321;28;20190;-77
2021/07/25 07:48:04;;;;;;;2.88;1.83;;;31.40;99.90;;;;;;5052383;28;20669;-80
2021/07/25 07:50:29;;;;;;;2.53;1.70;;;31.00;99.90;;;;;;5052232;28;20159;-78
2021/07/25 07:52:57;;;;;;;5.07;2.20;;;29.40;99.90;;;;;;5052377;28;20184;-78
2021/07/25 07:55:23;;;;;;;4.25;1.85;;;28.80;99.90;;;;;;5052261;28;20179;-78
2021/07/25 07:57:48;;;;;;;4.07;2.13;;;28.30;99.90;;;;;;5052694;28;20618;-77
2021/07/25 08:00:14;;;;;;;3.22;2.30;;;28.20;99.90;;;;;;5052189;28;20662;-78
2021/07/25 08:02:40;;;;;;;10.55;2.67;;;28.00;99.90;;;;;;5034409;28;20262;-78
2021/07/25 08:05:07;;;;;;;5.05;2.63;;;27.80;99.90;;;;;;5052201;28;20204;-78
2021/07/25 08:07:32;;;;;;;2.10;1.80;;;27.50;99.90;;;;;;5052099;28;20650;-78
2021/07/25 08:09:58;;;;;;;4.90;2.42;;;27.60;99.90;;;;;;5054779;28;20179;-79
2021/07/25 08:12:24;;;;;;;8.55;3.15;;;27.50;99.90;;;;;;5056213;28;20253;-77
2021/07/25 08:14:49;;;;;;;4.72;1.73;;;27.20;99.90;;;;;;5056315;28;20685;-78
2021/07/25 08:17:15;;;;;;;8.95;2.85;;;26.70;99.90;;;;;;5056075;28;20167;-78
2021/07/25 08:19:41;;;;;;;3.25;2.95;;;26.80;99.90;;;;;;5056162;28;20207;-78
2021/07/25 08:22:07;;;;;;;5.35;2.70;;;26.50;99.90;;;;;;5056170;28;20590;-78
2021/07/25 08:24:38;;;;;;;7.90;2.85;;;26.60;99.90;;;;;;5056147;28;20221;-78
2021/07/25 08:27:08;;;;;;;6.90;1.98;;;26.70;99.90;;;;;;5055922;28;20257;-78
2021/07/25 08:29:34;;;;;;;2.35;1.60;;;26.70;99.90;;;;;;5055878;28;20176;-78
2021/07/25 08:32:00;;;;;;;6.00;1.77;;;26.60;99.90;;;;;;5055984;28;20182;-82
2021/07/25 08:34:26;;;;;;;3.90;1.77;;;26.60;99.90;;;;;;5055903;28;20190;-78
2021/07/25 08:36:52;;;;;;;6.28;1.70;;;25.90;99.90;;;;;;5056205;28;20170;-79
2021/07/25 08:39:18;;;;;;;9.27;1.75;;;26.00;99.90;;;;;;5055769;28;20264;-79
2021/07/25 08:42:05;;;;;;;7.38;2.03;;;25.90;99.90;;;;;;5055436;28;20163;-78
2021/07/25 08:44:46;;;;;;;4.70;2.40;;;26.00;99.90;;;;;;5055437;28;20556;-80
2021/07/25 08:47:19;;;;;;;2.10;1.52;;;26.10;99.90;;;;;;5037523;28;20218;-79
2021/07/25 08:49:58;;;;;;;2.55;1.52;;;25.70;99.90;;;;;;5055689;28;20658;-79
2021/07/25 08:52:26;;;;;;;2.78;1.30;;;25.90;99.90;;;;;;5055554;28;20187;-79
2021/07/25 08:54:53;;;;;;;3.97;1.23;;;26.20;99.90;;;;;;5055538;28;20187;-80
2021/07/25 08:57:22;;;;;;;3.50;2.00;;;26.00;99.90;;;;;;5055425;28;20171;-80
2021/07/25 08:59:50;;;;;;;5.72;2.13;;;25.90;99.90;;;;;;5055396;28;20207;-79
2021/07/25 09:02:27;;;;;;;11.88;1.45;;;26.10;99.90;;;;;;5055185;28;20163;-79
2021/07/25 09:04:54;;;;;;;2.42;1.60;;;26.30;99.90;;;;;;5055509;28;20187;-79
2021/07/25 09:07:22;;;;;;;4.60;1.95;;;26.20;99.90;;;;;;5055160;28;20635;-80
2021/07/25 09:10:00;;;;;;;9.48;1.95;;;26.50;99.90;;;;;;5055264;28;20152;-79
2021/07/25 09:12:27;;;;;;;2.35;1.63;;;26.30;99.90;;;;;;5055162;28;20557;-79
2021/07/25 09:14:59;;;;;;;8.95;2.72;;;26.60;99.90;;;;;;5055322;28;20183;-79
2021/07/25 09:17:26;;;;;;;2.25;1.90;;;26.60;99.90;;;;;;5054748;28;20232;-80
2021/07/25 09:20:10;;;;;;;8.75;2.13;;;26.50;99.90;;;;;;5054692;28;20202;-79
2021/07/25 09:22:37;;;;;;;6.90;2.25;;;27.00;99.90;;;;;;5054488;28;20170;-79
2021/07/25 09:25:04;;;;;;;1.75;1.42;;;27.10;99.90;;;;;;5054937;28;20194;-79
2021/07/25 09:27:29;;;;;;;9.90;1.65;;;27.20;99.90;;;;;;5054944;28;20167;-79
2021/07/25 09:29:55;;;;;;;1.88;1.23;;;26.90;99.90;;;;;;5055099;28;20171;-80
2021/07/25 09:32:22;;;;;;;3.40;1.73;;;26.90;99.90;;;;;;5054672;28;20648;-80
2021/07/25 09:34:50;;;;;;;4.85;1.05;;;27.20;99.90;;;;;;5054868;28;20210;-80
2021/07/25 09:37:21;;;;;;;1.95;1.40;;;27.00;99.90;;;;;;5037035;28;20217;-80
2021/07/25 09:39:48;;;;;;;4.72;1.00;;;26.70;99.90;;;;;;5054878;28;20420;-80
2021/07/25 09:42:14;;;;;;;2.75;1.17;;;26.80;99.90;;;;;;5054350;28;20163;-79
2021/07/25 09:44:51;;;;;;;2.40;1.27;;;26.90;99.90;;;;;;5055089;28;20285;-77
2021/07/25 09:47:38;;;;;;;4.05;1.30;;;26.70;99.90;;;;;;5054413;28;20191;-78
2021/07/25 09:50:06;;;;;;;2.45;1.27;;;26.40;99.90;;;;;;5054823;28;20246;-77
2021/07/25 09:52:37;;;;;;;3.15;1.23;;;26.00;99.90;;;;;;5054914;28;20175;-77
2021/07/25 09:55:05;;;;;;;1.30;1.20;;;26.30;99.90;;;;;;5054253;28;20217;-78
2021/07/25 09:57:32;;;;;;;3.30;1.30;;;26.50;99.90;;;;;;5055267;28;20172;-81
2021/07/25 10:00:10;;;;;;;5.20;1.40;;;26.70;99.90;;;;;;5054683;28;20203;-79
2021/07/25 10:02:38;;;;;;;2.65;2.40;;;26.70;99.90;;;;;;5036117;28;20258;-78
2021/07/25 10:05:15;;;;;;;2.97;1.50;;;26.40;99.90;;;;;;5054391;28;20262;-78
2021/07/25 10:07:42;;;;;;;1.38;1.13;;;26.20;99.90;;;;;;5054049;28;20193;-78
2021/07/25 10:10:10;;;;;;;2.10;1.15;;;26.50;99.90;;;;;;5054073;28;20615;-79
2021/07/25 10:12:38;;;;;;;7.53;1.08;;;26.70;99.90;;;;;;5054197;28;20166;-79
2021/07/25 10:15:07;;;;;;;2.17;1.30;;;27.20;99.90;;;;;;5053895;28;20179;-78
2021/07/25 10:17:37;;;;;;;2.58;1.27;;;27.30;99.90;;;;;;5054060;28;20225;-80
2021/07/25 10:20:05;;;;;;;3.78;1.30;;;27.50;99.90;;;;;;5055006;28;20202;-80
2021/07/25 10:22:32;;;;;;;1.35;1.25;;;27.40;99.90;;;;;;5054685;28;20519;-81
2021/07/25 10:25:00;;;;;;;2.38;1.45;;;27.40;99.90;;;;;;5036622;28;20195;-84
2021/07/25 10:27:27;;;;;;;3.45;1.27;;;27.10;99.90;;;;;;5055108;28;20187;-82
2021/07/25 10:29:53;;;;;;;11.80;1.60;;;27.30;99.90;;;;;;5055062;28;20713;-86
2021/07/25 10:32:20;;;;;;;1.52;1.10;;;27.40;99.90;;;;;;5055883;28;20171;-79
2021/07/25 10:34:47;;;;;;;2.40;1.33;;;27.10;99.90;;;;;;5054307;28;20278;-78
2021/07/25 10:37:14;;;;;;;1.98;1.30;;;26.80;99.90;;;;;;5053968;28;20163;-78
2021/07/25 10:39:48;;;;;;;1.45;1.35;;;27.20;99.90;;;;;;5054327;28;20732;-78
2021/07/25 10:42:20;;;;;;;1.98;1.45;;;27.30;99.90;;;;;;5036204;28;20200;-77
2021/07/25 10:44:46;;;;;;;3.63;1.30;;;27.10;99.90;;;;;;5054088;28;20191;-77
2021/07/25 10:47:28;;;;;;;2.50;1.33;;;26.70;99.90;;;;;;5054001;28;20175;-77
2021/07/25 10:50:15;;;;;;;2.72;2.20;;;26.40;99.90;;;;;;5036070;28;20179;-78
2021/07/25 10:55:34;;;;;;;13.85;1.63;;;26.40;99.90;;;;;;5053821;28;20325;-78
2021/07/25 10:58:01;;;;;;;2.13;1.38;;;26.40;99.90;;;;;;5054010;28;20167;-78
2021/07/25 11:00:42;;;;;;;1.75;1.20;;;26.50;99.90;;;;;;5053374;28;20731;-78
2021/07/25 11:03:10;;;;;;;1.88;1.60;;;26.70;99.90;;;;;;5054451;28;20168;-78
2021/07/25 11:06:01;;;;;;;4.50;1.33;;;27.20;99.90;;;;;;5053309;28;20179;-78
2021/07/25 11:08:44;;;;;;;3.08;1.10;;;27.60;99.90;;;;;;5053640;28;20167;-78
2021/07/25 11:11:34;;;;;;;1.30;1.20;;;27.40;99.90;;;;;;5053199;28;20174;-80
2021/07/25 11:14:05;;;;;;;5.15;1.70;;;26.90;99.90;;;;;;5038988;28;20182;-78
2021/07/25 11:16:31;;;;;;;4.65;1.58;;;26.60;99.90;;;;;;5053129;28;20640;-79
2021/07/25 11:19:03;;;;;;;3.13;1.85;;;26.70;99.90;;;;;;5052711;28;20250;-79
2021/07/25 11:21:36;;;;;;;6.50;1.70;;;26.30;99.90;;;;;;5034872;28;20179;-78
2021/07/25 11:24:42;;;;;;;3.83;2.20;;;26.10;99.90;;;;;;5052857;28;20228;-79
2021/07/25 11:27:47;;;;;;;2.13;1.35;;;26.30;99.90;;;;;;5054707;28;20183;-80
2021/07/25 11:33:51;;;;;;;9.32;1.73;;;26.40;99.90;;;;;;5052808;28;20244;-78
2021/07/25 11:36:23;;;;;;;1.58;1.48;;;25.60;99.90;;;;;;4999704;28;20202;-78
2021/07/25 11:38:53;;;;;;;4.90;1.42;;;25.40;99.90;;;;;;5052277;28;20599;-79
2021/07/25 11:41:25;;;;;;;4.53;1.60;;;25.50;99.90;;;;;;5052494;28;20510;-79
2021/07/25 11:44:01;;;;;;;5.65;1.70;;;26.00;99.90;;;;;;5052051;28;20174;-80
2021/07/25 11:46:32;;;;;;;2.30;0.90;;;26.50;99.90;;;;;;5051902;28;20244;-79
2021/07/25 11:49:06;;;;;;;0.73;0.70;;;26.60;99.90;;;;;;5052527;28;20217;-80
2021/07/25 11:51:33;;;;;;;1.00;0.77;;;26.90;99.90;;;;;;5052742;28;20515;-79
2021/07/25 11:53:59;;;;;;;0.95;0.60;;;26.80;99.90;;;;;;5052937;28;20168;-78
2021/07/25 11:56:24;;;;;;;1.88;1.00;;;26.20;99.90;;;;;;5052590;28;20183;-79
2021/07/25 11:59:07;;;;;;;0.52;0.52;;;26.20;99.90;;;;;;5053663;28;20163;-85
2021/07/25 12:01:34;;;;;;;2.15;1.33;;;26.00;99.90;;;;;;5036701;28;20266;-94
2021/07/25 12:04:36;;;;;;;0.85;0.85;;;26.40;99.90;;;;;;5055318;28;20164;-84
2021/07/25 12:07:01;;;;;;;2.95;1.08;;;26.80;99.90;;;;;;5052848;28;20244;-92
2021/07/25 12:09:28;;;;;;;0.95;0.93;;;27.20;99.90;;;;;;5053446;28;20171;-92
2021/07/25 12:12:15;;;;;;;2.78;1.30;;;27.20;99.90;;;;;;5053126;28;20659;-92
2021/07/25 12:14:43;;;;;;;1.27;1.15;;;26.90;99.90;;;;;;5052871;28;20288;-80
2021/07/25 12:17:10;;;;;;;1.95;1.40;;;27.10;99.90;;;;;;5052266;28;20189;-90
2021/07/25 12:19:39;;;;;;;1.30;1.20;;;27.30;99.90;;;;;;5053196;28;20255;-87
2021/07/25 12:22:07;;;;;;;1.00;0.73;;;27.70;99.90;;;;;;5052999;28;20568;-84
2021/07/25 12:24:35;;;;;;;4.85;1.10;;;28.00;99.90;;;;;;5035197;28;20221;-92
2021/07/25 12:27:03;;;;;;;3.58;1.23;;;27.70;99.90;;;;;;5053319;28;20635;-92
2021/07/25 12:29:38;;;;;;;3.45;0.88;;;27.40;99.90;;;;;;5053731;28;20156;-93
2021/07/25 12:32:22;;;;;;;1.10;1.00;;;27.10;99.90;;;;;;5036372;28;20269;-93
2021/07/25 12:34:49;;;;;;;2.75;0.93;;;27.20;99.90;;;;;;5054718;28;20191;-91
2021/07/25 12:37:32;;;;;;;2.22;1.02;;;27.10;99.90;;;;;;5035791;28;20179;-92
2021/07/25 12:40:25;;;;;;;0.73;0.73;;;27.10;99.90;;;;;;5035945;28;20214;-90
2021/07/25 12:42:56;;;;;;;2.80;1.48;;;27.00;99.90;;;;;;5053113;28;20190;-93
2021/07/25 12:45:34;;;;;;;2.10;1.10;;;26.70;99.90;;;;;;5054952;28;20252;-86
2021/07/25 12:48:23;;;;;;;2.78;1.52;;;27.00;99.90;;;;;;5056604;28;20163;-93
2021/07/25 12:53:37;;;;;;;2.17;0.93;;;27.20;99.90;;;;;;5056929;28;20233;-91
2021/07/25 12:56:08;;;;;;;2.38;1.00;;;27.60;99.90;;;;;;5059256;28;20187;-93
2021/07/25 12:58:39;;;;;;;2.38;1.10;;;27.80;99.90;;;;;;5060887;28;20159;-84
2021/07/25 13:04:04;;;;;;;1.15;1.05;;;27.90;99.90;;;;;;5035953;28;20175;-79
2021/07/25 13:06:41;;;;;;;1.67;1.15;;;28.00;99.90;;;;;;5055527;28;20171;-80
2021/07/25 13:09:18;;;;;;;1.63;1.13;;;27.80;99.90;;;;;;5055282;28;20210;-80